createdAt,value
2023-04-18T00:01:23.692Z,11.65
2023-04-18T00:03:51.099Z,6.72
2023-04-18T00:06:17.959Z,9.82
2023-04-18T00:08:44.507Z,6.47
2023-04-18T00:11:11.124Z,9.10
2023-04-18T00:13:39.271Z,7.93
2023-04-18T00:16:07.660Z,6.53
2023-04-18T00:18:36.685Z,11.50
2023-04-18T00:21:04.242Z,7.60
2023-04-18T00:23:31.065Z,8.88
2023-04-18T00:25:57.675Z,9.70
2023-04-18T00:28:24.386Z,7.03
2023-04-18T00:30:51.395Z,7.68
2023-04-18T00:33:18.033Z,7.18
2023-04-18T00:35:44.787Z,6.78
2023-04-18T00:38:11.315Z,6.93
2023-04-18T00:40:38.678Z,9.52
2023-04-18T00:43:07.730Z,5.55
2023-04-18T00:45:34.556Z,7.53
2023-04-18T00:48:01.826Z,11.15
2023-04-18T00:50:28.847Z,4.70
2023-04-18T00:52:55.980Z,6.97
2023-04-18T00:55:24.130Z,6.68
2023-04-18T00:57:51.668Z,8.35
2023-04-18T01:00:18.421Z,7.90
2023-04-18T01:02:45.127Z,6.20
2023-04-18T01:05:11.904Z,12.02
2023-04-18T01:07:41.352Z,6.95
2023-04-18T01:10:10.030Z,6.40
2023-04-18T01:12:37.626Z,7.40
2023-04-18T01:15:08.109Z,5.90
2023-04-18T01:17:36.228Z,9.10
2023-04-18T01:20:05.303Z,7.40
2023-04-18T01:22:33.120Z,8.07
2023-04-18T01:24:59.772Z,9.80
2023-04-18T01:27:26.324Z,5.88
2023-04-18T01:29:52.875Z,5.97
2023-04-18T01:32:20.646Z,6.32
2023-04-18T01:34:47.564Z,8.18
2023-04-18T01:37:14.240Z,6.22
2023-04-18T01:39:40.772Z,5.25
2023-04-18T01:42:07.407Z,9.00
2023-04-18T01:44:33.977Z,6.13
2023-04-18T01:47:00.593Z,5.57
2023-04-18T01:49:27.244Z,5.95
2023-04-18T01:51:53.803Z,5.38
2023-04-18T01:54:21.278Z,6.00
2023-04-18T01:56:47.887Z,6.40
2023-04-18T01:59:14.398Z,7.20
2023-04-18T02:01:40.919Z,5.88
2023-04-18T02:04:07.460Z,4.95
2023-04-18T02:06:34.113Z,5.70
2023-04-18T02:09:00.717Z,5.25
2023-04-18T02:11:27.372Z,4.88
2023-04-18T02:13:53.935Z,8.43
2023-04-18T02:16:20.634Z,4.47
2023-04-18T02:18:47.291Z,5.22
2023-04-18T02:21:13.856Z,3.63
2023-04-18T02:23:40.468Z,4.47
2023-04-18T02:26:07.109Z,5.95
2023-04-18T02:28:33.700Z,7.85
2023-04-18T02:31:03.142Z,5.45
2023-04-18T02:33:29.712Z,5.70
2023-04-18T02:35:56.378Z,5.13
2023-04-18T02:38:22.879Z,4.00
2023-04-18T02:40:51.868Z,5.13
2023-04-18T02:43:20.331Z,5.68
2023-04-18T02:45:47.005Z,5.22
2023-04-18T02:48:14.277Z,4.47
2023-04-18T02:50:40.982Z,4.18
2023-04-18T02:53:07.534Z,5.07
2023-04-18T02:55:48.501Z,3.33
2023-04-18T02:58:15.642Z,3.88
2023-04-18T03:01:00.692Z,6.17
2023-04-18T03:03:56.412Z,5.03
2023-04-18T03:06:36.217Z,5.90
2023-04-18T03:09:03.847Z,5.22
2023-04-18T03:11:32.789Z,5.18
2023-04-18T03:13:59.515Z,6.53
2023-04-18T03:16:32.197Z,5.18
2023-04-18T03:18:58.698Z,4.63
2023-04-18T03:21:26.550Z,8.65
2023-04-18T03:23:53.343Z,4.60
2023-04-18T03:26:21.289Z,6.68
2023-04-18T03:28:47.788Z,4.45
2023-04-18T03:31:16.615Z,5.45
2023-04-18T03:33:45.530Z,4.82
2023-04-18T03:36:15.454Z,4.20
2023-04-18T03:38:42.288Z,3.97
2023-04-18T03:41:09.211Z,6.57
2023-04-18T03:43:37.358Z,4.50
2023-04-18T03:46:04.300Z,5.90
2023-04-18T03:48:35.613Z,5.82
2023-04-18T03:51:05.897Z,6.47
2023-04-18T03:53:32.767Z,5.15
2023-04-18T03:56:00.054Z,4.78
2023-04-18T03:58:40.823Z,4.97
2023-04-18T04:01:07.752Z,5.50
2023-04-18T04:03:34.412Z,10.63
2023-04-18T04:06:01.326Z,7.95
2023-04-18T04:08:28.357Z,5.38
2023-04-18T04:10:54.977Z,8.32
2023-04-18T04:13:22.160Z,6.22
2023-04-18T04:15:49.263Z,6.57
2023-04-18T04:18:15.831Z,8.63
2023-04-18T04:20:45.875Z,6.75
2023-04-18T04:23:17.612Z,6.35
2023-04-18T04:25:46.922Z,7.07
2023-04-18T04:28:26.081Z,6.20
2023-04-18T04:30:57.999Z,4.65
2023-04-18T04:33:33.192Z,7.05
2023-04-18T04:36:02.901Z,5.97
2023-04-18T04:38:32.750Z,9.85
2023-04-18T04:40:59.636Z,6.75
2023-04-18T04:43:28.621Z,8.35
2023-04-18T04:45:57.528Z,6.78
2023-04-18T04:48:24.904Z,5.60
2023-04-18T04:50:57.978Z,7.32
2023-04-18T04:53:26.542Z,6.25
2023-04-18T04:55:53.251Z,8.32
2023-04-18T04:58:20.089Z,6.63
2023-04-18T05:01:22.656Z,5.57
2023-04-18T05:03:51.414Z,6.20
2023-04-18T05:06:22.543Z,5.32
2023-04-18T05:08:50.392Z,7.15
2023-04-18T05:11:17.723Z,6.07
2023-04-18T05:13:44.387Z,4.50
2023-04-18T05:16:11.130Z,6.18
2023-04-18T05:18:39.221Z,5.78
2023-04-18T05:21:06.004Z,4.50
2023-04-18T05:23:34.755Z,5.97
2023-04-18T05:26:01.365Z,6.80
2023-04-18T05:28:27.946Z,6.03
2023-04-18T05:31:01.033Z,9.38
2023-04-18T05:33:31.620Z,8.30
2023-04-18T05:35:58.831Z,7.68
2023-04-18T05:38:25.766Z,6.57
2023-04-18T05:40:55.283Z,8.60
2023-04-18T05:43:22.292Z,7.47
2023-04-18T05:45:49.025Z,6.63
2023-04-18T05:48:15.597Z,5.85
2023-04-18T05:50:42.217Z,7.70
2023-04-18T05:53:08.752Z,6.00
2023-04-18T05:55:35.519Z,5.30
2023-04-18T05:58:02.019Z,8.05
2023-04-18T06:00:28.612Z,7.60
2023-04-18T06:02:55.401Z,6.93
2023-04-18T06:05:22.470Z,7.57
2023-04-18T06:07:49.439Z,6.97
2023-04-18T06:10:16.138Z,6.30
2023-04-18T06:12:42.742Z,11.45
2023-04-18T06:15:10.235Z,6.78
2023-04-18T06:17:36.761Z,9.50
2023-04-18T06:20:06.108Z,8.50
2023-04-18T06:22:34.035Z,5.43
2023-04-18T06:25:00.669Z,8.35
2023-04-18T06:27:31.469Z,10.90
2023-04-18T06:29:58.792Z,10.48
2023-04-18T06:32:25.569Z,9.55
2023-04-18T06:34:52.910Z,10.57
2023-04-18T06:37:19.751Z,8.35
2023-04-18T06:39:46.390Z,8.75
2023-04-18T06:42:13.050Z,8.77
2023-04-18T06:44:44.401Z,8.63
2023-04-18T06:47:11.306Z,6.40
2023-04-18T06:49:37.835Z,10.52
2023-04-18T06:52:04.423Z,8.13
2023-04-18T06:54:30.975Z,9.02
2023-04-18T06:56:57.593Z,12.55
2023-04-18T06:59:24.299Z,8.75
2023-04-18T07:01:51.270Z,9.80
2023-04-18T07:04:18.009Z,10.73
2023-04-18T07:06:45.185Z,12.25
2023-04-18T07:09:11.812Z,10.68
2023-04-18T07:11:39.313Z,17.15
2023-04-18T07:14:05.936Z,14.63
2023-04-18T07:16:32.476Z,8.90
2023-04-18T07:18:59.094Z,10.23
2023-04-18T07:21:25.605Z,12.30
2023-04-18T07:23:52.162Z,13.10
2023-04-18T07:26:18.929Z,11.55
2023-04-18T07:28:45.643Z,11.05
2023-04-18T07:31:14.370Z,10.38
2023-04-18T07:33:41.139Z,10.43
2023-04-18T07:36:08.150Z,12.30
2023-04-18T07:38:35.424Z,12.07
2023-04-18T07:41:02.366Z,12.73
2023-04-18T07:43:29.290Z,11.30
2023-04-18T07:45:55.901Z,10.98
2023-04-18T07:48:22.731Z,9.40
2023-04-18T07:50:49.956Z,10.65
2023-04-18T07:53:17.017Z,10.45
2023-04-18T07:55:43.603Z,10.63
2023-04-18T07:58:10.376Z,10.77
2023-04-18T08:00:39.158Z,9.10
2023-04-18T08:03:07.566Z,9.85
2023-04-18T08:05:34.370Z,8.48
2023-04-18T08:08:01.176Z,9.82
2023-04-18T08:10:27.873Z,8.50
2023-04-18T08:12:54.641Z,12.40
2023-04-18T08:15:21.217Z,13.05
2023-04-18T08:17:49.153Z,10.82
2023-04-18T08:20:15.829Z,8.77
2023-04-18T08:22:57.486Z,8.32
2023-04-18T08:25:28.678Z,10.90
2023-04-18T08:27:55.766Z,8.60
2023-04-18T08:30:22.312Z,9.93
2023-04-18T08:32:49.521Z,9.32
2023-04-18T08:35:16.358Z,9.07
2023-04-18T08:37:43.294Z,7.85
2023-04-18T08:40:10.032Z,8.73
2023-04-18T08:42:38.420Z,12.07
2023-04-18T08:45:06.854Z,9.90
2023-04-18T08:47:35.459Z,8.60
2023-04-18T08:50:02.454Z,9.50
2023-04-18T08:52:30.917Z,9.75
2023-04-18T08:54:57.586Z,8.98
2023-04-18T08:57:26.750Z,7.63
2023-04-18T08:59:53.952Z,11.25
2023-04-18T09:02:23.904Z,8.75
2023-04-18T09:04:53.722Z,9.48
2023-04-18T09:07:28.282Z,9.55
2023-04-18T09:09:59.200Z,11.93
2023-04-18T09:12:27.854Z,13.60
2023-04-18T09:15:09.696Z,11.60
2023-04-18T09:17:45.439Z,13.23
2023-04-18T09:20:15.344Z,11.10
2023-04-18T09:22:51.317Z,11.63
2023-04-18T09:25:29.267Z,11.82
2023-04-18T09:28:00.756Z,14.20
2023-04-18T09:30:34.380Z,11.52
2023-04-18T09:33:04.364Z,14.77
2023-04-18T09:35:31.449Z,10.43
2023-04-18T09:37:57.936Z,12.07
2023-04-18T09:40:24.684Z,13.23
2023-04-18T09:42:55.925Z,11.00
2023-04-18T09:45:23.604Z,14.52
2023-04-18T09:47:51.471Z,12.02
2023-04-18T09:50:20.538Z,12.38
2023-04-18T09:52:48.083Z,10.32
2023-04-18T09:55:17.415Z,11.98
2023-04-18T09:57:48.497Z,9.15
2023-04-18T10:00:20.267Z,8.93
2023-04-18T10:02:51.110Z,9.75
2023-04-18T10:05:21.216Z,12.93
2023-04-18T10:07:50.431Z,12.40
2023-04-18T10:10:17.367Z,12.88
2023-04-18T10:12:44.736Z,14.00
2023-04-18T10:15:11.775Z,13.75
2023-04-18T10:17:56.118Z,13.73
2023-04-18T10:20:31.752Z,16.80
2023-04-18T10:22:59.495Z,11.13
2023-04-18T10:25:35.136Z,13.57
2023-04-18T10:28:02.964Z,13.05
2023-04-18T10:30:41.519Z,13.60
2023-04-18T10:33:30.482Z,13.57
2023-04-18T10:36:16.988Z,12.07
2023-04-18T10:38:54.512Z,15.37
2023-04-18T10:41:30.102Z,14.35
2023-04-18T10:44:13.239Z,14.38
2023-04-18T10:47:01.709Z,17.15
2023-04-18T10:49:32.043Z,12.77
2023-04-18T10:52:00.934Z,14.35
2023-04-18T10:54:37.978Z,13.48
2023-04-18T10:57:05.654Z,14.02
2023-04-18T10:59:34.089Z,15.93
2023-04-18T11:02:27.026Z,14.38
2023-04-18T11:04:55.668Z,14.40
2023-04-18T11:07:39.370Z,12.05
2023-04-18T11:10:07.754Z,15.63
2023-04-18T11:12:36.805Z,13.50
2023-04-18T11:15:14.170Z,15.02
2023-04-18T11:17:41.311Z,13.75
2023-04-18T11:20:14.863Z,13.55
2023-04-18T11:22:51.441Z,14.90
2023-04-18T11:25:22.099Z,16.77
2023-04-18T11:27:53.054Z,11.80
2023-04-18T11:30:19.803Z,17.90
2023-04-18T11:32:46.426Z,16.00
2023-04-18T11:35:14.624Z,17.48
2023-04-18T11:37:42.736Z,13.52
2023-04-18T11:40:09.838Z,15.65
2023-04-18T11:42:38.927Z,17.65
2023-04-18T11:45:12.609Z,17.98
2023-04-18T11:47:39.804Z,14.60
2023-04-18T11:50:08.366Z,17.45
2023-04-18T11:52:36.394Z,12.85
2023-04-18T11:55:21.506Z,18.77
2023-04-18T11:58:01.511Z,14.63
2023-04-18T12:00:39.158Z,16.50
2023-04-18T12:03:11.864Z,15.95
2023-04-18T12:05:40.141Z,16.35
2023-04-18T12:08:13.058Z,15.18
2023-04-18T12:10:48.324Z,18.08
2023-04-18T12:13:15.064Z,19.45
2023-04-18T12:15:45.645Z,18.63
2023-04-18T12:18:14.436Z,17.88
2023-04-18T12:20:45.922Z,15.35
2023-04-18T12:23:35.792Z,17.15
2023-04-18T12:26:04.408Z,22.00
2023-04-18T12:28:31.625Z,19.35
2023-04-18T12:30:58.953Z,20.00
2023-04-18T12:33:26.256Z,14.02
2023-04-18T12:35:53.450Z,11.93
2023-04-18T12:38:22.092Z,14.32
2023-04-18T12:40:49.793Z,14.25
2023-04-18T12:43:17.320Z,17.42
2023-04-18T12:45:46.026Z,13.68
2023-04-18T12:48:13.100Z,15.45
2023-04-18T12:50:39.708Z,14.02
2023-04-18T12:53:06.610Z,17.50
2023-04-18T12:55:33.246Z,14.10
2023-04-18T12:58:00.612Z,14.00
2023-04-18T13:00:29.922Z,15.10
2023-04-18T13:02:57.694Z,16.58
2023-04-18T13:05:29.910Z,15.85
2023-04-18T13:08:15.165Z,13.73
2023-04-18T13:10:43.425Z,18.88
2023-04-18T13:13:10.309Z,11.50
2023-04-18T13:15:37.054Z,14.65
2023-04-18T13:18:06.171Z,13.90
2023-04-18T13:20:34.165Z,13.55
2023-04-18T13:23:03.099Z,13.30
2023-04-18T13:25:29.874Z,21.38
2023-04-18T13:27:58.198Z,16.70
2023-04-18T13:30:24.750Z,15.68
2023-04-18T13:32:51.613Z,12.18
2023-04-18T13:35:18.277Z,16.85
2023-04-18T13:37:44.773Z,15.43
2023-04-18T13:40:12.048Z,16.90
2023-04-18T13:42:38.655Z,13.68
2023-04-18T13:45:05.775Z,11.75
2023-04-18T13:47:32.471Z,16.95
2023-04-18T13:49:59.273Z,15.32
2023-04-18T13:52:26.115Z,13.23
2023-04-18T13:54:52.815Z,16.95
2023-04-18T13:57:19.336Z,13.75
2023-04-18T13:59:45.948Z,16.58
2023-04-18T14:02:12.664Z,15.90
2023-04-18T14:04:39.428Z,19.65
2023-04-18T14:07:06.384Z,12.82
2023-04-18T14:09:33.476Z,12.65
2023-04-18T14:12:00.179Z,12.80
2023-04-18T14:14:26.788Z,14.90
2023-04-18T14:16:53.972Z,18.80
2023-04-18T14:19:20.958Z,11.25
2023-04-18T14:21:48.129Z,11.90
2023-04-18T14:24:14.716Z,12.55
2023-04-18T14:26:41.332Z,14.85
2023-04-18T14:29:07.875Z,15.40
2023-04-18T14:31:34.490Z,13.82
2023-04-18T14:34:01.080Z,15.18
2023-04-18T14:36:27.650Z,9.73
2023-04-18T14:38:55.019Z,13.02
2023-04-18T14:41:21.730Z,10.13
2023-04-18T14:43:48.752Z,10.25
2023-04-18T14:46:18.921Z,10.75
2023-04-18T14:48:48.521Z,13.98
2023-04-18T14:51:16.444Z,18.00
2023-04-18T14:53:44.184Z,13.27
2023-04-18T14:56:10.878Z,11.10
2023-04-18T14:58:37.527Z,13.10
2023-04-18T15:01:04.395Z,15.18
2023-04-18T15:03:31.178Z,10.63
2023-04-18T15:05:57.846Z,15.18
2023-04-18T15:08:24.476Z,11.60
2023-04-18T15:10:51.016Z,12.40
2023-04-18T15:13:17.724Z,9.93
2023-04-18T15:15:53.693Z,11.70
2023-04-18T15:18:20.506Z,16.15
2023-04-18T15:20:47.600Z,10.93
2023-04-18T15:23:15.094Z,14.07
2023-04-18T15:25:42.648Z,11.75
2023-04-18T15:28:09.275Z,13.15
2023-04-18T15:30:36.021Z,10.88
2023-04-18T15:33:02.738Z,15.75
2023-04-18T15:35:29.406Z,14.68
2023-04-18T15:37:57.232Z,12.85
2023-04-18T15:40:23.841Z,11.40
2023-04-18T15:42:53.354Z,12.48
2023-04-18T15:45:21.204Z,10.70
2023-04-18T15:47:47.979Z,18.33
2023-04-18T15:50:16.158Z,14.00
2023-04-18T15:52:43.230Z,11.00
2023-04-18T15:55:13.291Z,11.25
2023-04-18T15:57:41.691Z,12.60
2023-04-18T16:00:15.654Z,14.70
2023-04-18T16:02:46.631Z,11.82
2023-04-18T16:05:13.832Z,12.27
2023-04-18T16:07:41.210Z,9.40
2023-04-18T16:10:09.971Z,10.90
2023-04-18T16:12:37.715Z,11.30
2023-04-18T16:15:09.206Z,10.13
2023-04-18T16:17:39.161Z,13.85
2023-04-18T16:20:08.085Z,9.82
2023-04-18T16:22:34.683Z,9.48
2023-04-18T16:25:01.322Z,10.35
2023-04-18T16:27:28.187Z,10.10
2023-04-18T16:29:54.800Z,10.25
2023-04-18T16:32:21.372Z,10.00
2023-04-18T16:34:48.330Z,8.93
2023-04-18T16:37:15.055Z,8.32
2023-04-18T16:39:41.669Z,9.50
2023-04-18T16:42:08.135Z,8.32
2023-04-18T16:44:34.724Z,10.07
2023-04-18T16:47:01.373Z,9.55
2023-04-18T16:49:28.073Z,9.82
2023-04-18T16:51:54.550Z,11.32
2023-04-18T16:54:21.201Z,10.00
2023-04-18T16:56:48.200Z,11.68
2023-04-18T16:59:14.766Z,10.43
2023-04-18T17:01:41.296Z,9.38
2023-04-18T17:04:07.838Z,9.60
2023-04-18T17:06:34.426Z,9.77
2023-04-18T17:09:01.200Z,9.77
2023-04-18T17:11:27.835Z,10.93
2023-04-18T17:13:54.369Z,12.32
2023-04-18T17:16:21.020Z,8.85
2023-04-18T17:18:47.636Z,11.13
2023-04-18T17:21:14.136Z,10.20
2023-04-18T17:23:42.224Z,8.98
2023-04-18T17:26:09.806Z,8.52
2023-04-18T17:28:36.686Z,7.70
2023-04-18T17:31:03.949Z,11.23
2023-04-18T17:33:31.210Z,10.35
2023-04-18T17:35:58.404Z,9.63
2023-04-18T17:38:25.069Z,9.23
2023-04-18T17:41:01.400Z,10.43
2023-04-18T17:43:28.175Z,11.07
2023-04-18T17:45:55.834Z,9.43
2023-04-18T17:48:22.445Z,8.77
2023-04-18T17:50:48.930Z,9.73
2023-04-18T17:53:15.568Z,9.80
2023-04-18T17:55:42.124Z,11.70
2023-04-18T17:58:09.076Z,10.00
2023-04-18T18:00:35.884Z,8.75
2023-04-18T18:03:03.267Z,10.63
2023-04-18T18:05:30.611Z,9.48
2023-04-18T18:07:57.653Z,8.85
2023-04-18T18:10:24.934Z,8.95
2023-04-18T18:12:51.656Z,10.27
2023-04-18T18:15:18.856Z,11.00
2023-04-18T18:17:48.163Z,10.48
2023-04-18T18:20:14.780Z,11.68
2023-04-18T18:22:41.544Z,8.82
2023-04-18T18:25:08.520Z,8.98
2023-04-18T18:27:35.982Z,8.80
2023-04-18T18:30:03.402Z,8.80
2023-04-18T18:32:30.000Z,10.38
2023-04-18T18:34:56.558Z,7.22
2023-04-18T18:37:25.318Z,8.55
2023-04-18T18:39:54.308Z,10.10
2023-04-18T18:42:20.873Z,12.48
2023-04-18T18:44:47.422Z,13.25
2023-04-18T18:47:14.015Z,9.48
2023-04-18T18:49:40.684Z,7.97
2023-04-18T18:52:07.249Z,8.23
2023-04-18T18:54:34.220Z,8.02
2023-04-18T18:57:03.756Z,10.13
2023-04-18T18:59:30.396Z,8.63
2023-04-18T19:01:57.152Z,12.27
2023-04-18T19:04:24.172Z,10.38
2023-04-18T19:06:51.130Z,7.50
2023-04-18T19:09:17.619Z,7.13
2023-04-18T19:11:44.199Z,8.13
2023-04-18T19:14:10.780Z,8.75
2023-04-18T19:16:37.457Z,9.07
2023-04-18T19:19:04.194Z,7.65
2023-04-18T19:21:31.295Z,10.00
2023-04-18T19:23:57.893Z,10.60
2023-04-18T19:26:24.430Z,7.28
2023-04-18T19:28:51.085Z,7.63
2023-04-18T19:31:17.657Z,11.63
2023-04-18T19:33:44.194Z,8.95
2023-04-18T19:36:10.802Z,6.78
2023-04-18T19:38:37.358Z,11.98
2023-04-18T19:41:03.933Z,9.48
2023-04-18T19:43:30.529Z,8.95
2023-04-18T19:45:57.229Z,12.15
2023-04-18T19:48:23.889Z,8.00
2023-04-18T19:50:51.073Z,9.63
2023-04-18T19:53:18.913Z,8.18
2023-04-18T19:55:45.979Z,9.07
2023-04-18T19:58:33.133Z,7.63
2023-04-18T20:00:59.812Z,9.10
2023-04-18T20:03:26.580Z,6.32
2023-04-18T20:05:53.336Z,6.80
2023-04-18T20:08:20.149Z,10.25
2023-04-18T20:10:46.732Z,8.13
2023-04-18T20:13:13.239Z,8.40
2023-04-18T20:15:40.329Z,8.75
2023-04-18T20:18:06.999Z,14.07
2023-04-18T20:20:33.794Z,8.02
2023-04-18T20:23:00.290Z,11.18
2023-04-18T20:25:26.874Z,7.85
2023-04-18T20:27:53.357Z,7.15
2023-04-18T20:30:21.519Z,8.40
2023-04-18T20:32:48.039Z,9.35
2023-04-18T20:35:14.832Z,8.57
2023-04-18T20:37:41.377Z,8.73
2023-04-18T20:40:08.828Z,9.40
2023-04-18T20:42:36.644Z,9.40
2023-04-18T20:45:03.712Z,8.23
2023-04-18T20:47:30.183Z,7.93
2023-04-18T20:49:56.779Z,8.88
2023-04-18T20:52:23.309Z,12.52
2023-04-18T20:54:49.904Z,7.70
2023-04-18T20:57:18.932Z,10.73
2023-04-18T20:59:45.662Z,8.82
2023-04-18T21:02:12.289Z,8.18
2023-04-18T21:04:39.128Z,7.50
2023-04-18T21:07:05.750Z,11.13
2023-04-18T21:09:36.388Z,9.60
2023-04-18T21:12:03.855Z,12.18
2023-04-18T21:14:30.414Z,9.27
2023-04-18T21:16:58.016Z,8.43
2023-04-18T21:19:24.865Z,11.93
2023-04-18T21:21:51.520Z,7.85
2023-04-18T21:24:18.092Z,10.82
2023-04-18T21:26:44.607Z,10.05
2023-04-18T21:29:11.105Z,7.97
2023-04-18T21:31:37.750Z,7.80
2023-04-18T21:34:05.216Z,9.27
2023-04-18T21:36:32.161Z,7.15
2023-04-18T21:39:00.831Z,7.90
2023-04-18T21:41:27.568Z,10.43
2023-04-18T21:43:54.202Z,11.07
2023-04-18T21:46:21.029Z,11.40
2023-04-18T21:48:47.968Z,11.85
2023-04-18T21:51:16.034Z,9.98
2023-04-18T21:53:42.780Z,11.70
2023-04-18T21:56:10.646Z,9.43
2023-04-18T21:58:37.200Z,8.88
2023-04-18T22:01:03.827Z,8.57
2023-04-18T22:03:31.440Z,16.17
2023-04-18T22:05:58.422Z,11.05
2023-04-18T22:08:25.728Z,9.48
2023-04-18T22:10:58.823Z,9.50
2023-04-18T22:13:29.782Z,12.25
2023-04-18T22:15:57.958Z,13.50
2023-04-18T22:18:24.718Z,9.18
2023-04-18T22:20:53.421Z,9.15
2023-04-18T22:23:19.981Z,9.75
2023-04-18T22:25:46.536Z,9.70
2023-04-18T22:28:13.038Z,10.35
2023-04-18T22:30:39.697Z,11.07
2023-04-18T22:33:06.336Z,12.30
2023-04-18T22:35:32.894Z,10.00
2023-04-18T22:37:59.514Z,12.00
2023-04-18T22:40:26.648Z,12.77
2023-04-18T22:42:53.303Z,11.65
2023-04-18T22:45:20.289Z,10.68
2023-04-18T22:47:47.248Z,16.42
2023-04-18T22:50:14.408Z,11.48
2023-04-18T22:52:41.412Z,11.30
2023-04-18T22:55:08.705Z,9.95
2023-04-18T22:57:35.316Z,10.88
2023-04-18T23:00:02.005Z,12.15
2023-04-18T23:02:28.837Z,10.55
2023-04-18T23:04:58.842Z,12.35
2023-04-18T23:07:25.557Z,9.48
2023-04-18T23:09:52.110Z,13.45
2023-04-18T23:12:18.696Z,10.07
2023-04-18T23:14:45.286Z,12.50
2023-04-18T23:17:11.757Z,12.02
2023-04-18T23:19:38.612Z,10.20
2023-04-18T23:22:05.163Z,10.68
2023-04-18T23:24:31.962Z,10.63
2023-04-18T23:26:58.497Z,12.43
2023-04-18T23:29:25.137Z,13.70
2023-04-18T23:31:51.723Z,11.77
2023-04-18T23:34:18.338Z,11.48
2023-04-18T23:36:44.997Z,11.90
2023-04-18T23:39:11.774Z,10.88
2023-04-18T23:41:38.281Z,10.32
2023-04-18T23:44:05.575Z,10.90
2023-04-18T23:46:32.597Z,23.77
2023-04-18T23:49:00.385Z,14.10
2023-04-18T23:51:27.630Z,12.65
2023-04-18T23:53:54.268Z,15.85
2023-04-18T23:56:21.660Z,12.60
2023-04-18T23:58:48.366Z,14.68
